createdAt,value
2016-08-21T00:00:27.660Z,0.00
2016-08-21T00:01:28.202Z,0.00
2016-08-21T00:02:28.737Z,0.00
2016-08-21T00:03:29.272Z,0.00
2016-08-21T00:04:29.823Z,0.00
2016-08-21T00:05:30.352Z,0.00
2016-08-21T00:06:30.899Z,0.00
2016-08-21T00:07:31.459Z,0.00
2016-08-21T00:08:32.128Z,0.00
2016-08-21T00:09:32.512Z,0.00
2016-08-21T00:10:33.052Z,0.00
2016-08-21T00:11:33.619Z,0.00
2016-08-21T00:12:34.127Z,0.00
2016-08-21T00:13:34.669Z,0.00
2016-08-21T00:14:35.227Z,0.00
2016-08-21T00:15:35.872Z,0.00
2016-08-21T00:16:36.237Z,0.00
2016-08-21T00:17:36.753Z,0.00
2016-08-21T00:18:37.295Z,0.00
2016-08-21T00:19:37.928Z,0.00
2016-08-21T00:20:38.295Z,0.00
2016-08-21T00:21:38.807Z,0.00
2016-08-21T00:22:39.324Z,0.00
2016-08-21T00:23:39.845Z,0.00
2016-08-21T00:24:40.514Z,0.00
2016-08-21T00:25:40.887Z,0.00
2016-08-21T00:26:41.400Z,0.00
2016-08-21T00:27:41.917Z,0.00
2016-08-21T00:28:42.430Z,0.00
2016-08-21T00:29:42.952Z,0.00
2016-08-21T00:30:43.463Z,0.00
2016-08-21T00:31:43.978Z,0.00
2016-08-21T00:32:44.489Z,0.00
2016-08-21T00:33:45.006Z,0.00
2016-08-21T00:34:45.518Z,0.00
2016-08-21T00:35:46.036Z,0.00
2016-08-21T00:36:46.697Z,0.00
2016-08-21T00:37:47.055Z,0.00
2016-08-21T00:38:47.599Z,0.00
2016-08-21T00:39:48.090Z,0.00
2016-08-21T00:40:48.602Z,0.00
2016-08-21T00:41:49.115Z,0.00
2016-08-21T00:42:49.627Z,0.00
2016-08-21T00:43:50.142Z,0.00
2016-08-21T00:44:50.656Z,0.00
2016-08-21T00:45:51.167Z,0.00
2016-08-21T00:46:51.830Z,0.00
2016-08-21T00:47:52.221Z,0.00
2016-08-21T00:48:52.711Z,0.00
2016-08-21T00:49:53.237Z,0.00
2016-08-21T00:50:53.758Z,0.00
2016-08-21T00:51:54.258Z,0.00
2016-08-21T00:52:54.770Z,0.00
2016-08-21T00:53:55.284Z,0.00
2016-08-21T00:54:55.799Z,0.00
2016-08-21T00:55:56.311Z,0.00
2016-08-21T00:56:56.830Z,0.00
2016-08-21T00:57:57.343Z,0.00
2016-08-21T00:58:58.005Z,0.00
2016-08-21T00:59:58.364Z,0.00
2016-08-21T01:00:58.881Z,0.00
2016-08-21T01:01:59.397Z,0.00
2016-08-21T01:02:59.914Z,0.00
2016-08-21T01:04:00.573Z,0.00
2016-08-21T01:05:00.934Z,0.00
2016-08-21T01:06:01.449Z,0.00
2016-08-21T01:07:02.109Z,0.00
2016-08-21T01:08:02.505Z,0.00
2016-08-21T01:09:02.991Z,0.00
2016-08-21T01:10:03.506Z,0.00
2016-08-21T01:11:04.011Z,0.00
2016-08-21T01:12:04.532Z,0.00
2016-08-21T01:13:05.034Z,0.00
2016-08-21T01:14:05.544Z,0.00
2016-08-21T01:15:06.060Z,0.00
2016-08-21T01:16:06.727Z,0.00
2016-08-21T01:17:07.258Z,0.00
2016-08-21T01:18:07.604Z,0.00
2016-08-21T01:19:08.114Z,0.00
2016-08-21T01:20:08.627Z,0.00
2016-08-21T01:21:09.139Z,0.00
2016-08-21T01:22:09.651Z,0.00
2016-08-21T01:23:10.167Z,0.00
2016-08-21T01:24:10.678Z,0.00
2016-08-21T01:25:11.195Z,0.00
2016-08-21T01:26:11.704Z,0.00
2016-08-21T01:27:12.369Z,0.00
2016-08-21T01:28:12.730Z,0.00
2016-08-21T01:29:13.390Z,0.00
2016-08-21T01:30:13.906Z,0.00
2016-08-21T01:31:14.268Z,0.00
2016-08-21T01:32:14.779Z,0.00
2016-08-21T01:33:15.293Z,0.00
2016-08-21T01:34:15.810Z,0.00
2016-08-21T01:35:16.323Z,0.00
2016-08-21T01:36:16.840Z,0.00
2016-08-21T01:37:17.355Z,0.00
2016-08-21T01:38:18.022Z,0.00
2016-08-21T01:39:18.534Z,0.00
2016-08-21T01:40:18.906Z,0.00
2016-08-21T01:41:19.420Z,0.00
2016-08-21T01:42:19.924Z,0.00
2016-08-21T01:43:20.444Z,0.00
2016-08-21T01:44:20.952Z,0.00
2016-08-21T01:45:21.462Z,0.00
2016-08-21T01:46:21.974Z,0.00
2016-08-21T01:47:22.637Z,0.00
2016-08-21T01:48:23.002Z,0.00
2016-08-21T01:49:23.659Z,0.00
2016-08-21T01:50:24.023Z,0.00
2016-08-21T01:51:24.541Z,0.00
2016-08-21T01:52:25.056Z,0.00
2016-08-21T01:53:25.570Z,0.00
2016-08-21T01:54:26.090Z,0.00
2016-08-21T01:55:26.597Z,0.00
2016-08-21T01:56:27.114Z,0.00
2016-08-21T01:57:27.626Z,0.00
2016-08-21T01:58:28.143Z,0.00
2016-08-21T01:59:28.654Z,0.00
2016-08-21T02:00:29.170Z,0.00
2016-08-21T02:01:29.687Z,0.00
2016-08-21T02:02:30.189Z,0.00
2016-08-21T02:03:30.704Z,0.00
2016-08-21T02:04:31.222Z,0.00
2016-08-21T02:05:31.729Z,0.00
2016-08-21T02:06:32.246Z,0.00
2016-08-21T02:07:32.754Z,0.00
2016-08-21T02:08:33.289Z,0.00
2016-08-21T02:09:33.925Z,0.00
2016-08-21T02:10:34.299Z,0.00
2016-08-21T02:11:34.824Z,0.00
2016-08-21T02:12:35.330Z,0.00
2016-08-21T02:13:35.850Z,0.00
2016-08-21T02:14:36.515Z,0.00
2016-08-21T02:15:36.887Z,0.00
2016-08-21T02:16:37.401Z,0.00
2016-08-21T02:17:39.109Z,0.00
2016-08-21T02:18:38.570Z,0.00
2016-08-21T02:19:38.942Z,0.00
2016-08-21T02:20:39.449Z,0.00
2016-08-21T02:21:39.964Z,0.00
2016-08-21T02:22:40.481Z,0.00
2016-08-21T02:23:40.989Z,0.00
2016-08-21T02:24:41.503Z,0.00
2016-08-21T02:25:42.024Z,0.00
2016-08-21T02:26:42.674Z,0.00
2016-08-21T02:27:43.036Z,0.00
2016-08-21T02:28:43.565Z,0.00
2016-08-21T02:29:44.068Z,0.00
2016-08-21T02:30:44.580Z,0.00
2016-08-21T02:31:45.095Z,0.00
2016-08-21T02:32:45.620Z,0.00
2016-08-21T02:33:46.128Z,0.00
2016-08-21T02:34:46.643Z,0.00
2016-08-21T02:35:47.302Z,0.00
2016-08-21T02:36:47.671Z,0.00
2016-08-21T02:37:48.182Z,0.00
2016-08-21T02:38:48.713Z,0.00
2016-08-21T02:39:49.213Z,0.00
2016-08-21T02:40:49.724Z,0.00
2016-08-21T02:41:50.252Z,0.00
2016-08-21T02:42:50.907Z,0.00
2016-08-21T02:43:51.271Z,0.00
2016-08-21T02:44:51.935Z,0.00
2016-08-21T02:45:52.302Z,0.00
2016-08-21T02:46:52.810Z,0.00
2016-08-21T02:47:53.475Z,0.00
2016-08-21T02:48:53.992Z,0.00
2016-08-21T02:49:54.365Z,0.00
2016-08-21T02:50:54.883Z,0.00
2016-08-21T02:51:55.397Z,0.00
2016-08-21T02:52:55.915Z,0.00
2016-08-21T02:53:56.428Z,0.00
2016-08-21T02:54:56.941Z,0.00
2016-08-21T02:55:57.606Z,0.00
2016-08-21T02:56:57.968Z,0.00
2016-08-21T02:57:58.632Z,0.00
2016-08-21T02:58:59.025Z,0.00
2016-08-21T02:59:59.509Z,0.00
2016-08-21T03:01:00.020Z,0.00
2016-08-21T03:02:00.686Z,0.00
2016-08-21T03:03:01.049Z,0.00
2016-08-21T03:04:01.557Z,0.00
2016-08-21T03:05:02.225Z,0.00
2016-08-21T03:06:02.730Z,0.00
2016-08-21T03:07:03.248Z,0.00
2016-08-21T03:08:03.608Z,0.00
2016-08-21T03:09:04.159Z,0.00
2016-08-21T03:10:04.631Z,0.00
2016-08-21T03:11:05.146Z,0.00
2016-08-21T03:12:05.654Z,0.00
2016-08-21T03:13:06.173Z,0.00
2016-08-21T03:14:06.692Z,0.00
2016-08-21T03:15:07.201Z,0.00
2016-08-21T03:16:07.711Z,0.00
2016-08-21T03:17:08.225Z,0.00
2016-08-21T03:18:08.739Z,0.00
2016-08-21T03:19:09.408Z,0.00
2016-08-21T03:20:09.764Z,0.00
2016-08-21T03:21:10.284Z,0.00
2016-08-21T03:22:10.791Z,0.00
2016-08-21T03:23:11.304Z,0.00
2016-08-21T03:24:11.811Z,0.00
2016-08-21T03:25:12.328Z,0.00
2016-08-21T03:26:12.842Z,0.00
2016-08-21T03:27:13.359Z,0.00
2016-08-21T03:28:13.871Z,0.00
2016-08-21T03:29:14.534Z,0.00
2016-08-21T03:30:14.899Z,0.00
2016-08-21T03:31:15.408Z,0.00
2016-08-21T03:32:15.922Z,0.00
2016-08-21T03:33:16.435Z,0.00
2016-08-21T03:34:16.949Z,0.00
2016-08-21T03:35:17.467Z,0.00
2016-08-21T03:36:17.972Z,0.00
2016-08-21T03:37:18.634Z,0.00
2016-08-21T03:38:19.032Z,0.00
2016-08-21T03:39:19.514Z,0.00
2016-08-21T03:40:20.023Z,0.00
2016-08-21T03:41:20.534Z,0.00
2016-08-21T03:42:21.051Z,0.00
2016-08-21T03:43:21.566Z,0.00
2016-08-21T03:44:22.079Z,0.00
2016-08-21T03:45:22.590Z,0.00
2016-08-21T03:46:23.256Z,0.00
2016-08-21T03:47:23.641Z,0.00
2016-08-21T03:48:24.157Z,0.00
2016-08-21T03:49:24.642Z,0.00
2016-08-21T03:50:25.160Z,0.00
2016-08-21T03:51:25.670Z,0.00
2016-08-21T03:52:26.181Z,0.00
2016-08-21T03:53:26.695Z,0.00
2016-08-21T03:54:27.232Z,0.00
2016-08-21T03:55:27.721Z,0.00
2016-08-21T03:56:28.234Z,0.00
2016-08-21T03:57:28.744Z,0.00
2016-08-21T03:58:29.405Z,0.00
2016-08-21T03:59:29.772Z,0.00
2016-08-21T04:00:30.288Z,0.00
2016-08-21T04:01:30.803Z,0.00
2016-08-21T04:02:31.320Z,0.00
2016-08-21T04:03:31.832Z,0.00
2016-08-21T04:04:32.353Z,0.00
2016-08-21T04:05:32.863Z,0.00
2016-08-21T04:06:33.379Z,0.00
2016-08-21T04:07:33.887Z,0.00
2016-08-21T04:08:34.550Z,0.00
2016-08-21T04:09:35.068Z,0.00
2016-08-21T04:10:35.426Z,0.00
2016-08-21T04:11:35.944Z,0.00
2016-08-21T04:12:36.454Z,0.00
2016-08-21T04:13:36.972Z,0.00
2016-08-21T04:14:37.484Z,0.00
2016-08-21T04:15:37.993Z,0.00
2016-08-21T04:16:38.509Z,5.00
2016-08-21T04:17:39.025Z,0.00
2016-08-21T04:18:39.539Z,0.00
2016-08-21T04:19:40.088Z,0.00
2016-08-21T04:20:40.567Z,0.00
2016-08-21T04:21:41.075Z,0.00
2016-08-21T04:22:41.593Z,0.00
2016-08-21T04:23:42.105Z,0.00
2016-08-21T04:24:42.621Z,0.00
2016-08-21T04:25:43.282Z,0.00
2016-08-21T04:26:43.648Z,0.00
2016-08-21T04:27:44.161Z,0.00
2016-08-21T04:28:44.673Z,0.00
2016-08-21T04:29:45.337Z,0.00
2016-08-21T04:30:45.699Z,0.00
2016-08-21T04:31:46.215Z,0.00
2016-08-21T04:32:46.723Z,0.00
2016-08-21T04:33:47.236Z,0.00
2016-08-21T04:34:47.745Z,0.00
2016-08-21T04:35:48.260Z,0.00
2016-08-21T04:36:48.773Z,1.00
2016-08-21T04:37:49.294Z,1.00
2016-08-21T04:38:49.810Z,1.00
2016-08-21T04:39:50.345Z,1.00
2016-08-21T04:40:50.838Z,1.00
2016-08-21T04:41:51.355Z,1.00
2016-08-21T04:42:51.925Z,1.00
2016-08-21T04:43:52.377Z,1.00
2016-08-21T04:44:52.894Z,1.00
2016-08-21T04:45:53.564Z,1.00
2016-08-21T04:46:53.956Z,1.00
2016-08-21T04:47:54.462Z,1.00
2016-08-21T04:48:55.097Z,9.00
2016-08-21T04:49:55.481Z,1.00
2016-08-21T04:50:55.979Z,1.00
2016-08-21T04:51:56.489Z,1.00
2016-08-21T04:52:57.005Z,1.00
2016-08-21T04:53:57.520Z,1.00
2016-08-21T04:54:58.030Z,1.00
2016-08-21T04:55:58.542Z,1.00
2016-08-21T04:56:59.209Z,1.00
2016-08-21T04:57:59.578Z,2.00
2016-08-21T04:59:00.233Z,2.00
2016-08-21T05:00:00.748Z,2.00
2016-08-21T05:01:01.110Z,2.00
2016-08-21T05:02:01.637Z,2.00
2016-08-21T05:03:02.141Z,2.00
2016-08-21T05:04:02.662Z,3.00
2016-08-21T05:05:03.166Z,3.00
2016-08-21T05:06:03.831Z,4.00
2016-08-21T05:07:04.193Z,5.00
2016-08-21T05:08:04.711Z,5.00
2016-08-21T05:09:05.225Z,5.00
2016-08-21T05:10:05.736Z,5.00
2016-08-21T05:11:06.273Z,5.00
2016-08-21T05:12:06.759Z,5.00
2016-08-21T05:13:07.270Z,6.00
2016-08-21T05:14:07.936Z,6.00
2016-08-21T05:15:08.305Z,6.00
2016-08-21T05:16:08.828Z,6.00
2016-08-21T05:17:09.334Z,7.00
2016-08-21T05:18:09.851Z,7.00
2016-08-21T05:19:10.366Z,7.00
2016-08-21T05:20:10.891Z,7.00
2016-08-21T05:21:11.392Z,7.00
2016-08-21T05:22:11.909Z,7.00
2016-08-21T05:23:12.419Z,8.00
2016-08-21T05:24:12.931Z,9.00
2016-08-21T05:25:13.435Z,9.00
2016-08-21T05:26:13.948Z,9.00
2016-08-21T05:27:14.459Z,9.00
2016-08-21T05:28:14.971Z,8.00
2016-08-21T05:29:15.483Z,9.00
2016-08-21T05:30:16.003Z,9.00
2016-08-21T05:31:16.655Z,9.00
2016-08-21T05:32:17.022Z,19.00
2016-08-21T05:33:17.533Z,10.00
2016-08-21T05:34:18.046Z,10.00
2016-08-21T05:35:18.557Z,10.00
2016-08-21T05:36:19.221Z,11.00
2016-08-21T05:37:19.585Z,12.00
2016-08-21T05:38:20.102Z,13.00
2016-08-21T05:39:20.614Z,13.00
2016-08-21T05:40:21.121Z,13.00
2016-08-21T05:41:21.667Z,12.00
2016-08-21T05:42:22.152Z,13.00
2016-08-21T05:43:22.662Z,13.00
2016-08-21T05:44:23.176Z,17.00
2016-08-21T05:45:23.687Z,37.00
2016-08-21T05:46:24.212Z,43.00
2016-08-21T05:47:24.713Z,47.00
2016-08-21T05:48:25.376Z,48.00
2016-08-21T05:49:25.741Z,48.00
2016-08-21T05:50:26.254Z,48.00
2016-08-21T05:51:26.921Z,47.00
2016-08-21T05:52:27.306Z,48.00
2016-08-21T05:53:27.958Z,59.00
2016-08-21T05:54:28.320Z,51.00
2016-08-21T05:55:28.832Z,54.00
2016-08-21T05:56:29.351Z,55.00
2016-08-21T05:57:29.861Z,54.00
2016-08-21T05:58:30.528Z,55.00
2016-08-21T05:59:30.896Z,59.00
2016-08-21T06:00:31.407Z,69.00
2016-08-21T06:01:31.919Z,62.00
2016-08-21T06:02:32.584Z,62.00
2016-08-21T06:03:32.947Z,62.00
2016-08-21T06:04:33.611Z,63.00
2016-08-21T06:05:33.976Z,68.00
2016-08-21T06:06:34.490Z,64.00
2016-08-21T06:07:35.149Z,64.00
2016-08-21T06:08:35.515Z,65.00
2016-08-21T06:09:36.028Z,66.00
2016-08-21T06:10:36.542Z,67.00
2016-08-21T06:11:37.053Z,68.00
2016-08-21T06:12:37.570Z,79.00
2016-08-21T06:13:38.236Z,79.00
2016-08-21T06:14:38.607Z,73.00
2016-08-21T06:15:39.108Z,76.00
2016-08-21T06:16:39.771Z,76.00
2016-08-21T06:17:40.139Z,76.00
2016-08-21T06:18:40.646Z,75.00
2016-08-21T06:19:41.158Z,77.00
2016-08-21T06:20:41.826Z,79.00
2016-08-21T06:21:42.338Z,79.00
2016-08-21T06:22:42.700Z,89.00
2016-08-21T06:23:43.215Z,89.00
2016-08-21T06:24:43.741Z,81.00
2016-08-21T06:25:44.244Z,87.00
2016-08-21T06:26:44.759Z,84.00
2016-08-21T06:27:45.277Z,89.00
2016-08-21T06:28:45.798Z,89.00
2016-08-21T06:29:46.315Z,89.00
2016-08-21T06:30:46.832Z,85.00
2016-08-21T06:31:47.346Z,58.00
2016-08-21T06:32:47.859Z,34.00
2016-08-21T06:33:48.523Z,36.00
2016-08-21T06:34:48.926Z,27.00
2016-08-21T06:35:49.398Z,29.00
2016-08-21T06:36:49.908Z,65.00
2016-08-21T06:37:50.421Z,61.00
2016-08-21T06:38:50.936Z,25.00
2016-08-21T06:39:51.454Z,17.00
2016-08-21T06:40:51.963Z,14.00
2016-08-21T06:41:52.474Z,17.00
2016-08-21T06:42:52.987Z,39.00
2016-08-21T06:43:53.648Z,59.00
2016-08-21T06:44:54.017Z,89.00
2016-08-21T06:45:54.677Z,98.00
2016-08-21T06:46:55.086Z,95.00
2016-08-21T06:47:55.705Z,97.00
2016-08-21T06:48:56.074Z,99.00
2016-08-21T06:49:56.583Z,98.00
2016-08-21T06:50:57.097Z,63.00
2016-08-21T06:51:57.615Z,36.00
2016-08-21T06:52:58.122Z,27.00
2016-08-21T06:53:58.631Z,82.00
2016-08-21T06:54:59.148Z,97.00
2016-08-21T06:55:59.808Z,98.00
2016-08-21T06:57:00.320Z,49.00
2016-08-21T06:58:00.690Z,49.00
2016-08-21T06:59:01.198Z,79.00
2016-08-21T07:00:01.711Z,57.00
2016-08-21T07:01:03.571Z,51.00
2016-08-21T07:02:02.741Z,39.00
2016-08-21T07:03:03.265Z,49.00
2016-08-21T07:04:03.767Z,26.00
2016-08-21T07:05:04.443Z,19.00
2016-08-21T07:06:04.808Z,15.00
2016-08-21T07:07:05.314Z,15.00
2016-08-21T07:08:05.827Z,16.00
2016-08-21T07:09:06.339Z,16.00
2016-08-21T07:10:06.854Z,16.00
2016-08-21T07:11:07.390Z,15.00
2016-08-21T07:12:07.884Z,14.00
2016-08-21T07:13:08.392Z,13.00
2016-08-21T07:14:08.904Z,12.00
2016-08-21T07:15:09.424Z,12.00
2016-08-21T07:16:09.965Z,12.00
2016-08-21T07:17:10.448Z,19.00
2016-08-21T07:18:10.957Z,11.00
2016-08-21T07:19:11.465Z,11.00
2016-08-21T07:20:11.983Z,11.00
2016-08-21T07:21:12.497Z,11.00
2016-08-21T07:22:13.160Z,11.00
2016-08-21T07:23:13.524Z,11.00
2016-08-21T07:24:14.041Z,10.00
2016-08-21T07:25:14.700Z,10.00
2016-08-21T07:26:15.089Z,10.00
2016-08-21T07:27:15.594Z,9.00
2016-08-21T07:28:16.087Z,9.00
2016-08-21T07:29:16.606Z,9.00
2016-08-21T07:30:17.118Z,9.00
2016-08-21T07:31:17.632Z,19.00
2016-08-21T07:32:18.290Z,10.00
2016-08-21T07:33:18.953Z,10.00
2016-08-21T07:34:19.167Z,11.00
2016-08-21T07:35:19.675Z,11.00
2016-08-21T07:36:20.367Z,19.00
2016-08-21T07:37:20.852Z,12.00
2016-08-21T07:38:21.217Z,12.00
2016-08-21T07:39:21.733Z,12.00
2016-08-21T07:40:22.247Z,12.00
2016-08-21T07:41:22.767Z,13.00
2016-08-21T07:42:23.282Z,13.00
2016-08-21T07:43:23.801Z,14.00
2016-08-21T07:44:24.313Z,14.00
2016-08-21T07:45:25.122Z,15.00
2016-08-21T07:46:25.488Z,15.00
2016-08-21T07:47:25.891Z,16.00
2016-08-21T07:48:26.367Z,16.00
2016-08-21T07:49:28.525Z,16.00
2016-08-21T07:50:27.388Z,17.00
2016-08-21T07:51:27.879Z,17.00
2016-08-21T07:52:28.406Z,17.00
2016-08-21T07:53:29.039Z,17.00
2016-08-21T07:54:29.420Z,18.00
2016-08-21T07:55:29.922Z,18.00
2016-08-21T07:56:30.578Z,18.00
2016-08-21T07:57:31.362Z,17.00
2016-08-21T07:58:31.854Z,17.00
2016-08-21T07:59:32.382Z,18.00
2016-08-21T08:00:32.581Z,19.00
2016-08-21T08:01:33.518Z,19.00
2016-08-21T08:02:33.743Z,29.00
2016-08-21T08:03:33.938Z,20.00
2016-08-21T08:04:34.713Z,21.00
2016-08-21T08:05:35.383Z,21.00
2016-08-21T08:06:35.560Z,22.00
2016-08-21T08:07:36.679Z,23.00
2016-08-21T08:08:36.893Z,29.00
2016-08-21T08:09:37.082Z,39.00
2016-08-21T08:10:37.552Z,27.00
2016-08-21T08:11:38.235Z,26.00
2016-08-21T08:12:38.703Z,25.00
2016-08-21T08:13:39.202Z,23.00
2016-08-21T08:14:39.414Z,26.00
2016-08-21T08:15:40.204Z,28.00
2016-08-21T08:16:40.744Z,39.00
2016-08-21T08:17:41.207Z,31.00
2016-08-21T08:18:41.422Z,39.00
2016-08-21T08:19:41.917Z,30.00
2016-08-21T08:20:42.444Z,25.00
2016-08-21T08:21:43.211Z,25.00
2016-08-21T08:22:43.559Z,25.00
2016-08-21T08:23:44.061Z,24.00
2016-08-21T08:24:44.860Z,23.00
2016-08-21T08:25:45.084Z,22.00
2016-08-21T08:26:45.858Z,22.00
2016-08-21T08:27:45.922Z,23.00
2016-08-21T08:28:46.733Z,24.00
2016-08-21T08:29:47.212Z,25.00
2016-08-21T08:30:47.558Z,39.00
2016-08-21T08:31:48.098Z,37.00
2016-08-21T08:32:48.566Z,25.00
2016-08-21T08:33:49.356Z,24.00
2016-08-21T08:34:49.852Z,23.00
2016-08-21T08:35:50.077Z,29.00
2016-08-21T08:36:50.734Z,22.00
2016-08-21T08:37:51.352Z,22.00
2016-08-21T08:38:51.423Z,22.00
2016-08-21T08:39:51.919Z,23.00
2016-08-21T08:40:52.563Z,25.00
2016-08-21T08:41:53.201Z,26.00
2016-08-21T08:42:53.412Z,28.00
2016-08-21T08:43:54.064Z,39.00
2016-08-21T08:44:54.698Z,31.00
2016-08-21T08:45:55.084Z,31.00
2016-08-21T08:46:55.441Z,31.00
2016-08-21T08:47:56.214Z,33.00
2016-08-21T08:48:56.702Z,33.00
2016-08-21T08:49:57.080Z,32.00
2016-08-21T08:50:57.571Z,31.00
2016-08-21T08:51:58.062Z,30.00
2016-08-21T08:52:58.699Z,29.00
2016-08-21T08:53:59.238Z,29.00
2016-08-21T08:54:59.859Z,29.00
2016-08-21T08:56:01.108Z,29.00
2016-08-21T08:57:00.567Z,29.00
2016-08-21T08:58:01.224Z,39.00
2016-08-21T08:59:01.712Z,31.00
2016-08-21T09:00:02.365Z,39.00
2016-08-21T09:01:02.586Z,30.00
2016-08-21T09:02:03.210Z,30.00
2016-08-21T09:03:03.437Z,29.00
2016-08-21T09:04:04.063Z,28.00
2016-08-21T09:05:04.565Z,26.00
2016-08-21T09:06:05.363Z,24.00
2016-08-21T09:07:05.861Z,22.00
2016-08-21T09:08:06.228Z,22.00
2016-08-21T09:09:06.726Z,26.00
2016-08-21T09:10:07.210Z,39.00
2016-08-21T09:11:07.752Z,32.00
2016-08-21T09:12:08.224Z,37.00
2016-08-21T09:13:08.711Z,36.00
2016-08-21T09:14:09.511Z,32.00
2016-08-21T09:15:09.432Z,32.00
2016-08-21T09:16:10.090Z,31.00
2016-08-21T09:17:11.012Z,30.00
2016-08-21T09:18:10.950Z,29.00
2016-08-21T09:19:11.757Z,29.00
2016-08-21T09:20:12.514Z,28.00
2016-08-21T09:21:14.078Z,39.00
2016-08-21T09:22:13.083Z,31.00
2016-08-21T09:23:13.563Z,32.00
2016-08-21T09:24:13.917Z,35.00
2016-08-21T09:25:14.566Z,37.00
2016-08-21T09:26:15.066Z,49.00
2016-08-21T09:27:15.600Z,41.00
2016-08-21T09:28:16.219Z,49.00
2016-08-21T09:29:16.868Z,57.00
2016-08-21T09:30:17.103Z,47.00
2016-08-21T09:31:17.445Z,48.00
2016-08-21T09:32:17.965Z,78.00
2016-08-21T09:33:18.586Z,99.00
2016-08-21T09:34:19.096Z,99.00
2016-08-21T09:35:19.735Z,99.00
2016-08-21T09:36:19.943Z,98.00
2016-08-21T09:37:20.885Z,99.00
2016-08-21T09:38:21.535Z,89.00
2016-08-21T09:39:21.616Z,89.00
2016-08-21T09:40:22.233Z,97.00
2016-08-21T09:41:22.736Z,98.00
2016-08-21T09:42:23.532Z,97.00
2016-08-21T09:43:23.767Z,66.00
2016-08-21T09:44:24.231Z,99.00
2016-08-21T09:45:24.756Z,89.00
2016-08-21T09:46:25.254Z,57.00
2016-08-21T09:47:25.881Z,96.00
2016-08-21T09:48:26.171Z,99.00
2016-08-21T09:49:26.603Z,59.00
2016-08-21T09:50:27.080Z,32.00
2016-08-21T09:51:27.463Z,33.00
2016-08-21T09:52:27.944Z,49.00
2016-08-21T09:53:28.732Z,94.00
2016-08-21T09:54:29.227Z,69.00
2016-08-21T09:55:29.463Z,39.00
2016-08-21T09:56:30.100Z,39.00
2016-08-21T09:57:30.607Z,30.00
2016-08-21T09:58:31.384Z,25.00
2016-08-21T09:59:31.451Z,25.00
2016-08-21T10:00:32.227Z,27.00
2016-08-21T10:01:32.443Z,39.00
2016-08-21T10:02:33.377Z,39.00
2016-08-21T10:03:33.733Z,66.00
2016-08-21T10:04:34.375Z,58.00
2016-08-21T10:05:34.752Z,66.00
2016-08-21T10:06:35.249Z,42.00
2016-08-21T10:07:35.463Z,25.00
2016-08-21T10:08:35.971Z,22.00
2016-08-21T10:09:36.624Z,29.00
2016-08-21T10:10:36.958Z,19.00
2016-08-21T10:11:37.614Z,19.00
2016-08-21T10:12:38.393Z,19.00
2016-08-21T10:13:38.464Z,17.00
2016-08-21T10:14:39.380Z,17.00
2016-08-21T10:15:39.877Z,17.00
2016-08-21T10:16:39.945Z,17.00
2016-08-21T10:17:40.598Z,17.00
2016-08-21T10:18:41.221Z,16.00
2016-08-21T10:19:41.567Z,19.00
2016-08-21T10:20:41.950Z,12.00
2016-08-21T10:21:42.589Z,12.00
2016-08-21T10:22:43.218Z,12.00
2016-08-21T10:23:43.866Z,13.00
2016-08-21T10:24:44.080Z,15.00
2016-08-21T10:25:44.860Z,28.00
2016-08-21T10:26:45.361Z,56.00
2016-08-21T10:27:45.598Z,79.00
2016-08-21T10:28:45.924Z,71.00
2016-08-21T10:29:46.433Z,79.00
2016-08-21T10:30:46.948Z,79.00
2016-08-21T10:31:47.459Z,74.00
2016-08-21T10:32:47.973Z,79.00
2016-08-21T10:33:48.488Z,79.00
2016-08-21T10:34:49.002Z,73.00
2016-08-21T10:35:49.509Z,73.00
2016-08-21T10:36:50.173Z,73.00
2016-08-21T10:37:50.533Z,73.00
2016-08-21T10:38:51.051Z,74.00
2016-08-21T10:39:51.560Z,76.00
2016-08-21T10:40:52.374Z,49.00
2016-08-21T10:41:52.586Z,35.00
2016-08-21T10:42:53.100Z,36.00
2016-08-21T10:43:53.621Z,49.00
2016-08-21T10:44:54.135Z,36.00
2016-08-21T10:45:54.657Z,35.00
2016-08-21T10:46:55.176Z,36.00
2016-08-21T10:47:55.684Z,49.00
2016-08-21T10:48:56.348Z,49.00
2016-08-21T10:49:57.009Z,56.00
2016-08-21T10:50:57.223Z,64.00
2016-08-21T10:51:57.734Z,32.00
2016-08-21T10:52:58.249Z,62.00
2016-08-21T10:53:58.761Z,77.00
2016-08-21T10:55:01.073Z,79.00
2016-08-21T10:55:59.783Z,70.00
2016-08-21T10:57:00.292Z,72.00
2016-08-21T10:58:00.806Z,68.00
2016-08-21T10:59:01.470Z,67.00
2016-08-21T11:00:01.836Z,67.00
2016-08-21T11:01:02.348Z,66.00
2016-08-21T11:02:02.862Z,66.00
2016-08-21T11:03:03.375Z,66.00
2016-08-21T11:04:03.888Z,65.00
2016-08-21T11:05:04.406Z,64.00
2016-08-21T11:06:04.918Z,69.00
2016-08-21T11:07:05.433Z,64.00
2016-08-21T11:08:05.943Z,68.00
2016-08-21T11:09:06.469Z,67.00
2016-08-21T11:10:06.984Z,62.00
2016-08-21T11:11:07.534Z,63.00
2016-08-21T11:12:08.143Z,64.00
2016-08-21T11:13:08.514Z,19.00
2016-08-21T11:14:09.170Z,19.00
2016-08-21T11:15:09.536Z,18.00
2016-08-21T11:16:10.211Z,19.00
2016-08-21T11:17:10.569Z,59.00
2016-08-21T11:18:11.081Z,69.00
2016-08-21T11:19:11.604Z,29.00
2016-08-21T11:20:12.263Z,58.00
2016-08-21T11:21:12.632Z,59.00
2016-08-21T11:22:13.150Z,59.00
2016-08-21T11:23:13.664Z,59.00
2016-08-21T11:24:14.177Z,58.00
2016-08-21T11:25:14.691Z,59.00
2016-08-21T11:26:15.202Z,18.00
2016-08-21T11:27:15.719Z,35.00
2016-08-21T11:28:16.377Z,58.00
2016-08-21T11:29:16.885Z,58.00
2016-08-21T11:30:17.256Z,59.00
2016-08-21T11:31:17.913Z,59.00
2016-08-21T11:32:18.271Z,59.00
2016-08-21T11:33:18.787Z,57.00
2016-08-21T11:34:19.296Z,56.00
2016-08-21T11:35:19.808Z,56.00
2016-08-21T11:36:20.471Z,56.00
2016-08-21T11:37:20.854Z,53.00
2016-08-21T11:38:21.348Z,56.00
2016-08-21T11:39:21.859Z,55.00
2016-08-21T11:40:22.385Z,57.00
2016-08-21T11:41:22.882Z,55.00
2016-08-21T11:42:23.399Z,56.00
2016-08-21T11:43:23.925Z,59.00
2016-08-21T11:44:24.428Z,58.00
2016-08-21T11:45:24.944Z,56.00
2016-08-21T11:46:25.603Z,55.00
2016-08-21T11:47:25.970Z,56.00
2016-08-21T11:48:26.477Z,27.00
2016-08-21T11:49:26.999Z,22.00
2016-08-21T11:50:27.521Z,21.00
2016-08-21T11:51:28.174Z,22.00
2016-08-21T11:52:28.538Z,26.00
2016-08-21T11:53:29.052Z,48.00
2016-08-21T11:54:29.565Z,59.00
2016-08-21T11:55:30.083Z,54.00
2016-08-21T11:56:30.600Z,54.00
2016-08-21T11:57:31.122Z,54.00
2016-08-21T11:58:31.632Z,55.00
2016-08-21T11:59:32.164Z,58.00
2016-08-21T12:00:33.259Z,58.00
2016-08-21T12:01:33.172Z,39.00
2016-08-21T12:02:33.686Z,54.00
2016-08-21T12:03:34.205Z,58.00
2016-08-21T12:04:34.709Z,58.00
2016-08-21T12:05:35.226Z,55.00
2016-08-21T12:06:35.742Z,55.00
2016-08-21T12:07:36.258Z,55.00
2016-08-21T12:08:37.059Z,54.00
2016-08-21T12:09:37.272Z,49.00
2016-08-21T12:10:37.783Z,59.00
2016-08-21T12:11:38.293Z,58.00
2016-08-21T12:12:38.812Z,59.00
2016-08-21T12:13:39.329Z,27.00
2016-08-21T12:14:39.832Z,17.00
2016-08-21T12:15:40.342Z,18.00
2016-08-21T12:16:40.857Z,18.00
2016-08-21T12:17:41.393Z,59.00
2016-08-21T12:18:42.035Z,51.00
2016-08-21T12:19:42.406Z,59.00
2016-08-21T12:20:42.949Z,31.00
2016-08-21T12:21:43.428Z,21.00
2016-08-21T12:22:43.942Z,19.00
2016-08-21T12:23:44.454Z,18.00
2016-08-21T12:24:44.961Z,18.00
2016-08-21T12:25:45.480Z,18.00
2016-08-21T12:26:45.993Z,29.00
2016-08-21T12:27:46.509Z,59.00
2016-08-21T12:28:47.022Z,51.00
2016-08-21T12:29:47.535Z,58.00
2016-08-21T12:30:49.849Z,49.00
2016-08-21T12:31:48.581Z,39.00
2016-08-21T12:32:49.077Z,27.00
2016-08-21T12:33:49.595Z,25.00
2016-08-21T12:34:50.112Z,37.00
2016-08-21T12:35:50.625Z,39.00
2016-08-21T12:36:51.135Z,49.00
2016-08-21T12:37:51.647Z,33.00
2016-08-21T12:38:52.309Z,21.00
2016-08-21T12:39:52.670Z,20.00
2016-08-21T12:40:53.185Z,19.00
2016-08-21T12:41:53.704Z,18.00
2016-08-21T12:42:54.219Z,17.00
2016-08-21T12:43:54.731Z,16.00
2016-08-21T12:44:55.243Z,19.00
2016-08-21T12:45:55.758Z,15.00
2016-08-21T12:46:56.269Z,14.00
2016-08-21T12:47:56.784Z,14.00
2016-08-21T12:48:57.296Z,14.00
2016-08-21T12:49:57.817Z,14.00
2016-08-21T12:50:58.353Z,15.00
2016-08-21T12:51:58.839Z,15.00
2016-08-21T12:52:59.366Z,17.00
2016-08-21T12:53:59.864Z,38.00
2016-08-21T12:55:00.379Z,29.00
2016-08-21T12:56:00.888Z,29.00
2016-08-21T12:57:01.406Z,39.00
2016-08-21T12:58:01.921Z,28.00
2016-08-21T12:59:02.582Z,29.00
2016-08-21T13:00:02.943Z,25.00
2016-08-21T13:01:03.482Z,25.00
2016-08-21T13:02:03.984Z,24.00
2016-08-21T13:03:04.488Z,21.00
2016-08-21T13:04:05.003Z,21.00
2016-08-21T13:05:05.510Z,20.00
2016-08-21T13:06:06.024Z,19.00
2016-08-21T13:07:06.535Z,18.00
2016-08-21T13:08:07.052Z,17.00
2016-08-21T13:09:07.564Z,16.00
2016-08-21T13:10:08.176Z,16.00